sensor_id;sensor_type;location;lat;lon;timestamp;pressure;altitude;pressure_sealevel;temperature;humidity
64827;BME280;51265;53.972;12.286;2023-02-04T00:00:09;101716.22;;;1.94;100.00
64827;BME280;51265;53.972;12.286;2023-02-04T00:02:38;101718.28;;;1.99;100.00
64827;BME280;51265;53.972;12.286;2023-02-04T00:05:05;101729.78;;;1.94;100.00
64827;BME280;51265;53.972;12.286;2023-02-04T00:07:31;101742.97;;;1.97;100.00
64827;BME280;51265;53.972;12.286;2023-02-04T00:09:57;101739.25;;;1.79;100.00
64827;BME280;51265;53.972;12.286;2023-02-04T00:12:23;101746.34;;;1.80;100.00
64827;BME280;51265;53.972;12.286;2023-02-04T00:14:50;101752.63;;;1.80;100.00
64827;BME280;51265;53.972;12.286;2023-02-04T00:17:16;101769.53;;;1.82;100.00
64827;BME280;51265;53.972;12.286;2023-02-04T00:19:42;101771.78;;;1.92;100.00
64827;BME280;51265;53.972;12.286;2023-02-04T00:22:09;101769.53;;;1.82;100.00
64827;BME280;51265;53.972;12.286;2023-02-04T00:24:36;101763.09;;;1.70;100.00
64827;BME280;51265;53.972;12.286;2023-02-04T00:27:04;101773.13;;;1.76;100.00
64827;BME280;51265;53.972;12.286;2023-02-04T00:29:30;101775.19;;;1.74;100.00
64827;BME280;51265;53.972;12.286;2023-02-04T00:31:57;101774.13;;;1.75;100.00
64827;BME280;51265;53.972;12.286;2023-02-04T00:34:23;101782.31;;;1.62;100.00
64827;BME280;51265;53.972;12.286;2023-02-04T00:36:49;101774.41;;;1.40;100.00
64827;BME280;51265;53.972;12.286;2023-02-04T00:39:16;101786.13;;;1.34;100.00
64827;BME280;51265;53.972;12.286;2023-02-04T00:41:42;101799.47;;;1.42;100.00
64827;BME280;51265;53.972;12.286;2023-02-04T00:44:08;101814.28;;;1.53;100.00
64827;BME280;51265;53.972;12.286;2023-02-04T00:46:34;101820.34;;;1.48;100.00
64827;BME280;51265;53.972;12.286;2023-02-04T00:49:01;101822.00;;;1.49;100.00
64827;BME280;51265;53.972;12.286;2023-02-04T00:51:27;101837.06;;;1.52;100.00
64827;BME280;51265;53.972;12.286;2023-02-04T00:53:53;101836.66;;;1.55;100.00
64827;BME280;51265;53.972;12.286;2023-02-04T00:56:19;101842.91;;;1.56;100.00
64827;BME280;51265;53.972;12.286;2023-02-04T00:58:46;101842.91;;;1.42;100.00
64827;BME280;51265;53.972;12.286;2023-02-04T01:01:12;101846.22;;;1.24;100.00
64827;BME280;51265;53.972;12.286;2023-02-04T01:03:38;101857.06;;;1.11;100.00
64827;BME280;51265;53.972;12.286;2023-02-04T01:06:04;101882.75;;;1.09;100.00
64827;BME280;51265;53.972;12.286;2023-02-04T01:08:31;101893.81;;;1.14;100.00
64827;BME280;51265;53.972;12.286;2023-02-04T01:10:57;101916.78;;;1.24;100.00
64827;BME280;51265;53.972;12.286;2023-02-04T01:13:24;101922.44;;;1.23;100.00
64827;BME280;51265;53.972;12.286;2023-02-04T01:15:50;101934.75;;;1.26;100.00
64827;BME280;51265;53.972;12.286;2023-02-04T01:18:17;101926.19;;;1.22;100.00
64827;BME280;51265;53.972;12.286;2023-02-04T01:20:43;101935.97;;;1.16;100.00
64827;BME280;51265;53.972;12.286;2023-02-04T01:23:09;101954.41;;;1.34;100.00
64827;BME280;51265;53.972;12.286;2023-02-04T01:25:35;101962.34;;;1.36;100.00
64827;BME280;51265;53.972;12.286;2023-02-04T01:28:01;101968.59;;;1.36;100.00
64827;BME280;51265;53.972;12.286;2023-02-04T01:30:30;101962.56;;;1.34;100.00
64827;BME280;51265;53.972;12.286;2023-02-04T01:32:56;101960.81;;;1.20;100.00
64827;BME280;51265;53.972;12.286;2023-02-04T01:35:22;101957.25;;;1.06;100.00
64827;BME280;51265;53.972;12.286;2023-02-04T01:37:48;101956.97;;;0.94;100.00
64827;BME280;51265;53.972;12.286;2023-02-04T01:40:15;101959.69;;;0.94;100.00
64827;BME280;51265;53.972;12.286;2023-02-04T01:42:41;101962.97;;;0.83;100.00
64827;BME280;51265;53.972;12.286;2023-02-04T01:45:08;101968.38;;;0.77;100.00
64827;BME280;51265;53.972;12.286;2023-02-04T01:47:34;101983.81;;;0.76;100.00
64827;BME280;51265;53.972;12.286;2023-02-04T01:50:01;101985.88;;;0.74;100.00
64827;BME280;51265;53.972;12.286;2023-02-04T01:52:33;101994.50;;;0.84;100.00
64827;BME280;51265;53.972;12.286;2023-02-04T01:55:00;102009.06;;;0.77;100.00
64827;BME280;51265;53.972;12.286;2023-02-04T01:57:27;102012.59;;;0.77;100.00
64827;BME280;51265;53.972;12.286;2023-02-04T01:59:54;102023.69;;;0.82;100.00
64827;BME280;51265;53.972;12.286;2023-02-04T02:02:40;102033.94;;;0.87;100.00
64827;BME280;51265;53.972;12.286;2023-02-04T02:05:16;102028.50;;;0.80;100.00
64827;BME280;51265;53.972;12.286;2023-02-04T02:07:43;102032.63;;;0.76;100.00
64827;BME280;51265;53.972;12.286;2023-02-04T02:10:11;102035.59;;;0.81;100.00
64827;BME280;51265;53.972;12.286;2023-02-04T02:12:43;102039.78;;;0.84;100.00
64827;BME280;51265;53.972;12.286;2023-02-04T02:15:11;102046.03;;;0.84;100.00
64827;BME280;51265;53.972;12.286;2023-02-04T02:17:38;102048.75;;;0.84;100.00
64827;BME280;51265;53.972;12.286;2023-02-04T02:20:08;102047.25;;;0.82;100.00
64827;BME280;51265;53.972;12.286;2023-02-04T02:25:17;102058.94;;;0.82;100.00
64827;BME280;51265;53.972;12.286;2023-02-04T02:27:49;102052.69;;;0.82;100.00
64827;BME280;51265;53.972;12.286;2023-02-04T02:30:16;102064.59;;;0.87;100.00
64827;BME280;51265;53.972;12.286;2023-02-04T02:33:04;102074.03;;;0.91;100.00
64827;BME280;51265;53.972;12.286;2023-02-04T02:35:33;102075.31;;;0.95;100.00
64827;BME280;51265;53.972;12.286;2023-02-04T02:37:59;102078.28;;;1.01;100.00
64827;BME280;51265;53.972;12.286;2023-02-04T02:40:25;102079.34;;;1.06;100.00
64827;BME280;51265;53.972;12.286;2023-02-04T02:42:52;102086.25;;;1.09;100.00
64827;BME280;51265;53.972;12.286;2023-02-04T02:45:25;102084.13;;;1.04;100.00
64827;BME280;51265;53.972;12.286;2023-02-04T02:47:53;102078.91;;;1.03;100.00
64827;BME280;51265;53.972;12.286;2023-02-04T02:50:22;102078.66;;;0.97;100.00
64827;BME280;51265;53.972;12.286;2023-02-04T02:52:50;102077.38;;;0.93;100.00
64827;BME280;51265;53.972;12.286;2023-02-04T02:55:18;102095.84;;;1.05;100.00
64827;BME280;51265;53.972;12.286;2023-02-04T02:57:46;102086.88;;;1.11;100.00
64827;BME280;51265;53.972;12.286;2023-02-04T03:00:23;102092.91;;;1.06;100.00
64827;BME280;51265;53.972;12.286;2023-02-04T03:02:57;102095.56;;;0.99;100.00
64827;BME280;51265;53.972;12.286;2023-02-04T03:05:27;102094.88;;;0.91;100.00
64827;BME280;51265;53.972;12.286;2023-02-04T03:10:37;102101.06;;;0.78;100.00
64827;BME280;51265;53.972;12.286;2023-02-04T03:13:03;102106.72;;;0.83;100.00
64827;BME280;51265;53.972;12.286;2023-02-04T03:15:30;102124.03;;;0.82;100.00
64827;BME280;51265;53.972;12.286;2023-02-04T03:17:58;102127.84;;;0.88;100.00
64827;BME280;51265;53.972;12.286;2023-02-04T03:20:27;102126.59;;;0.90;100.00
64827;BME280;51265;53.972;12.286;2023-02-04T03:22:55;102134.38;;;1.00;100.00
64827;BME280;51265;53.972;12.286;2023-02-04T03:25:23;102137.81;;;1.09;100.00
64827;BME280;51265;53.972;12.286;2023-02-04T03:27:52;102140.53;;;1.09;100.00
64827;BME280;51265;53.972;12.286;2023-02-04T03:30:21;102146.97;;;1.08;100.00
64827;BME280;51265;53.972;12.286;2023-02-04T03:32:48;102145.13;;;1.15;100.00
64827;BME280;51265;53.972;12.286;2023-02-04T03:35:15;102142.22;;;1.16;100.00
64827;BME280;51265;53.972;12.286;2023-02-04T03:37:41;102146.81;;;1.16;100.00
64827;BME280;51265;53.972;12.286;2023-02-04T03:40:08;102156.38;;;1.12;100.00
64827;BME280;51265;53.972;12.286;2023-02-04T03:42:34;102152.81;;;1.05;100.00
64827;BME280;51265;53.972;12.286;2023-02-04T03:45:00;102160.97;;;1.11;100.00
64827;BME280;51265;53.972;12.286;2023-02-04T03:47:26;102174.31;;;1.06;100.00
64827;BME280;51265;53.972;12.286;2023-02-04T03:49:53;102181.66;;;1.12;100.00
64827;BME280;51265;53.972;12.286;2023-02-04T03:52:19;102186.81;;;1.01;100.00
64827;BME280;51265;53.972;12.286;2023-02-04T03:54:45;102185.44;;;0.90;100.00
64827;BME280;51265;53.972;12.286;2023-02-04T03:57:12;102203.84;;;0.94;100.00
64827;BME280;51265;53.972;12.286;2023-02-04T03:59:38;102205.03;;;0.85;100.00
64827;BME280;51265;53.972;12.286;2023-02-04T04:02:04;102203.38;;;0.84;100.00
64827;BME280;51265;53.972;12.286;2023-02-04T04:04:30;102204.94;;;0.72;100.00
64827;BME280;51265;53.972;12.286;2023-02-04T04:06:57;102207.94;;;0.62;100.00
64827;BME280;51265;53.972;12.286;2023-02-04T04:09:23;102224.41;;;0.61;100.00
64827;BME280;51265;53.972;12.286;2023-02-04T04:11:50;102227.72;;;0.56;100.00
64827;BME280;51265;53.972;12.286;2023-02-04T04:14:16;102222.78;;;0.45;100.00
64827;BME280;51265;53.972;12.286;2023-02-04T04:16:42;102219.22;;;0.23;100.00
64827;BME280;51265;53.972;12.286;2023-02-04T04:19:08;102241.03;;;0.15;100.00
64827;BME280;51265;53.972;12.286;2023-02-04T04:21:34;102247.22;;;0.09;100.00
64827;BME280;51265;53.972;12.286;2023-02-04T04:24:00;102250.19;;;-0.01;100.00
64827;BME280;51265;53.972;12.286;2023-02-04T04:26:27;102255.25;;;-0.13;100.00
64827;BME280;51265;53.972;12.286;2023-02-04T04:28:53;102249.50;;;-0.24;100.00
64827;BME280;51265;53.972;12.286;2023-02-04T04:31:19;102279.53;;;-0.19;100.00
64827;BME280;51265;53.972;12.286;2023-02-04T04:33:45;102280.75;;;-0.22;100.00
64827;BME280;51265;53.972;12.286;2023-02-04T04:36:12;102292.97;;;-0.26;100.00
64827;BME280;51265;53.972;12.286;2023-02-04T04:38:39;102302.41;;;-0.22;100.00
64827;BME280;51265;53.972;12.286;2023-02-04T04:41:06;102303.44;;;-0.23;100.00
64827;BME280;51265;53.972;12.286;2023-02-04T04:43:32;102305.78;;;-0.35;100.00
64827;BME280;51265;53.972;12.286;2023-02-04T04:45:58;102306.53;;;-0.41;100.00
64827;BME280;51265;53.972;12.286;2023-02-04T04:48:25;102316.50;;;-0.41;100.00
64827;BME280;51265;53.972;12.286;2023-02-04T04:50:51;102325.56;;;-0.49;100.00
64827;BME280;51265;53.972;12.286;2023-02-04T04:53:17;102330.75;;;-0.62;100.00
64827;BME280;51265;53.972;12.286;2023-02-04T04:55:43;102341.25;;;-0.67;100.00
64827;BME280;51265;53.972;12.286;2023-02-04T04:58:09;102352.63;;;-0.72;100.00
64827;BME280;51265;53.972;12.286;2023-02-04T05:00:35;102363.09;;;-0.69;100.00
64827;BME280;51265;53.972;12.286;2023-02-04T05:03:02;102375.59;;;-0.68;100.00
64827;BME280;51265;53.972;12.286;2023-02-04T05:05:28;102387.66;;;-0.70;100.00
64827;BME280;51265;53.972;12.286;2023-02-04T05:07:54;102397.09;;;-0.66;100.00
64827;BME280;51265;53.972;12.286;2023-02-04T05:10:20;102414.09;;;-0.58;100.00
64827;BME280;51265;53.972;12.286;2023-02-04T05:12:46;102415.28;;;-0.60;100.00
64827;BME280;51265;53.972;12.286;2023-02-04T05:15:12;102420.59;;;-0.67;100.00
64827;BME280;51265;53.972;12.286;2023-02-04T05:17:39;102431.44;;;-0.67;100.00
64827;BME280;51265;53.972;12.286;2023-02-04T05:20:05;102436.34;;;-0.70;100.00
64827;BME280;51265;53.972;12.286;2023-02-04T05:22:31;102440.06;;;-0.71;100.00
64827;BME280;51265;53.972;12.286;2023-02-04T05:24:57;102449.69;;;-0.69;100.00
64827;BME280;51265;53.972;12.286;2023-02-04T05:27:36;102446.22;;;-0.78;100.00
64827;BME280;51265;53.972;12.286;2023-02-04T05:30:02;102448.13;;;-0.86;100.00
64827;BME280;51265;53.972;12.286;2023-02-04T05:32:28;102444.09;;;-0.90;100.00
64827;BME280;51265;53.972;12.286;2023-02-04T05:34:56;102441.44;;;-0.98;100.00
64827;BME280;51265;53.972;12.286;2023-02-04T05:37:22;102441.66;;;-1.08;100.00
64827;BME280;51265;53.972;12.286;2023-02-04T05:39:49;102449.91;;;-1.02;100.00
64827;BME280;51265;53.972;12.286;2023-02-04T05:42:15;102450.25;;;-1.05;100.00
64827;BME280;51265;53.972;12.286;2023-02-04T05:44:41;102448.91;;;-1.09;100.00
64827;BME280;51265;53.972;12.286;2023-02-04T05:47:07;102447.94;;;-1.16;100.00
64827;BME280;51265;53.972;12.286;2023-02-04T05:49:33;102452.34;;;-1.15;100.00
64827;BME280;51265;53.972;12.286;2023-02-04T05:52:00;102434.88;;;-1.43;100.00
64827;BME280;51265;53.972;12.286;2023-02-04T05:54:26;102437.47;;;-1.50;100.00
64827;BME280;51265;53.972;12.286;2023-02-04T05:56:52;102454.50;;;-1.41;100.00
64827;BME280;51265;53.972;12.286;2023-02-04T05:59:19;102458.38;;;-1.44;100.00
64827;BME280;51265;53.972;12.286;2023-02-04T06:01:46;102471.84;;;-1.36;100.00
64827;BME280;51265;53.972;12.286;2023-02-04T06:04:12;102490.78;;;-1.36;100.00
64827;BME280;51265;53.972;12.286;2023-02-04T06:06:40;102486.56;;;-1.38;100.00
64827;BME280;51265;53.972;12.286;2023-02-04T06:09:06;102501.94;;;-1.39;100.00
64827;BME280;51265;53.972;12.286;2023-02-04T06:11:32;102499.72;;;-1.35;100.00
64827;BME280;51265;53.972;12.286;2023-02-04T06:13:58;102520.00;;;-1.31;100.00
64827;BME280;51265;53.972;12.286;2023-02-04T06:16:25;102520.00;;;-1.31;100.00
64827;BME280;51265;53.972;12.286;2023-02-04T06:18:51;102532.81;;;-1.25;100.00
64827;BME280;51265;53.972;12.286;2023-02-04T06:21:17;102542.13;;;-1.28;100.00
64827;BME280;51265;53.972;12.286;2023-02-04T06:23:44;102545.34;;;-1.32;100.00
64827;BME280;51265;53.972;12.286;2023-02-04T06:26:10;102531.88;;;-1.57;100.00
64827;BME280;51265;53.972;12.286;2023-02-04T06:28:36;102558.53;;;-1.37;100.00
64827;BME280;51265;53.972;12.286;2023-02-04T06:31:03;102577.44;;;-1.21;100.00
64827;BME280;51265;53.972;12.286;2023-02-04T06:33:29;102571.84;;;-1.19;100.00
64827;BME280;51265;53.972;12.286;2023-02-04T06:35:55;102589.50;;;-1.01;100.00
64827;BME280;51265;53.972;12.286;2023-02-04T06:38:21;102591.25;;;-1.08;100.00
64827;BME280;51265;53.972;12.286;2023-02-04T06:40:48;102596.28;;;-1.05;100.00
64827;BME280;51265;53.972;12.286;2023-02-04T06:43:15;102611.75;;;-0.74;100.00
64827;BME280;51265;53.972;12.286;2023-02-04T06:45:41;102620.44;;;-0.56;100.00
64827;BME280;51265;53.972;12.286;2023-02-04T06:48:07;102628.78;;;-0.34;100.00
64827;BME280;51265;53.972;12.286;2023-02-04T06:50:33;102620.63;;;-0.26;100.00
64827;BME280;51265;53.972;12.286;2023-02-04T06:52:59;102624.81;;;-0.15;100.00
64827;BME280;51265;53.972;12.286;2023-02-04T06:55:25;102612.88;;;-0.29;100.00
64827;BME280;51265;53.972;12.286;2023-02-04T06:57:52;102608.84;;;-0.33;100.00
64827;BME280;51265;53.972;12.286;2023-02-04T07:00:18;102605.38;;;-0.19;100.00
64827;BME280;51265;53.972;12.286;2023-02-04T07:02:44;102609.44;;;-0.23;100.00
64827;BME280;51265;53.972;12.286;2023-02-04T07:05:11;102605.91;;;-0.23;100.00
64827;BME280;51265;53.972;12.286;2023-02-04T07:07:37;102596.19;;;-0.41;100.00
64827;BME280;51265;53.972;12.286;2023-02-04T07:10:03;102596.09;;;-0.56;100.00
64827;BME280;51265;53.972;12.286;2023-02-04T07:12:30;102599.03;;;-0.65;100.00
64827;BME280;51265;53.972;12.286;2023-02-04T07:14:56;102603.41;;;-0.64;100.00
64827;BME280;51265;53.972;12.286;2023-02-04T07:17:22;102617.13;;;-0.66;100.00
64827;BME280;51265;53.972;12.286;2023-02-04T07:19:48;102624.94;;;-0.71;100.00
64827;BME280;51265;53.972;12.286;2023-02-04T07:22:14;102636.72;;;-0.64;100.00
64827;BME280;51265;53.972;12.286;2023-02-04T07:24:41;102650.56;;;-0.59;100.00
64827;BME280;51265;53.972;12.286;2023-02-04T07:27:26;102656.97;;;-0.52;100.00
64827;BME280;51265;53.972;12.286;2023-02-04T07:29:52;102655.28;;;-0.53;100.00
64827;BME280;51265;53.972;12.286;2023-02-04T07:32:18;102675.06;;;-0.44;100.00
64827;BME280;51265;53.972;12.286;2023-02-04T07:34:44;102674.19;;;-0.36;100.00
64827;BME280;51265;53.972;12.286;2023-02-04T07:37:10;102683.28;;;-0.29;100.00
64827;BME280;51265;53.972;12.286;2023-02-04T07:39:37;102688.13;;;-0.16;100.00
64827;BME280;51265;53.972;12.286;2023-02-04T07:42:03;102684.34;;;-0.07;100.00
64827;BME280;51265;53.972;12.286;2023-02-04T07:44:35;102693.56;;;0.07;100.00
64827;BME280;51265;53.972;12.286;2023-02-04T07:47:02;102691.78;;;0.22;100.00
64827;BME280;51265;53.972;12.286;2023-02-04T07:49:28;102693.72;;;0.36;100.00
64827;BME280;51265;53.972;12.286;2023-02-04T07:51:55;102718.22;;;0.66;100.00
64827;BME280;51265;53.972;12.286;2023-02-04T07:54:22;102707.31;;;0.74;100.00
64827;BME280;51265;53.972;12.286;2023-02-04T07:56:49;102691.19;;;0.58;100.00
64827;BME280;51265;53.972;12.286;2023-02-04T07:59:15;102685.66;;;0.51;100.00
64827;BME280;51265;53.972;12.286;2023-02-04T08:01:41;102689.75;;;0.47;100.00
64827;BME280;51265;53.972;12.286;2023-02-04T08:04:07;102689.50;;;0.57;100.00
64827;BME280;51265;53.972;12.286;2023-02-04T08:06:33;102689.38;;;0.73;100.00
64827;BME280;51265;53.972;12.286;2023-02-04T08:08:59;102694.13;;;1.09;100.00
64827;BME280;51265;53.972;12.286;2023-02-04T08:11:25;102688.56;;;1.17;100.00
64827;BME280;51265;53.972;12.286;2023-02-04T08:13:52;102667.19;;;1.22;100.00
64827;BME280;51265;53.972;12.286;2023-02-04T08:16:18;102650.88;;;1.22;100.00
64827;BME280;51265;53.972;12.286;2023-02-04T08:18:44;102631.88;;;1.22;100.00
64827;BME280;51265;53.972;12.286;2023-02-04T08:21:10;102638.06;;;1.31;100.00
64827;BME280;51265;53.972;12.286;2023-02-04T08:23:36;102646.56;;;1.42;100.00
64827;BME280;51265;53.972;12.286;2023-02-04T08:26:10;102645.16;;;1.46;100.00
64827;BME280;51265;53.972;12.286;2023-02-04T08:28:37;102645.69;;;1.42;100.00
64827;BME280;51265;53.972;12.286;2023-02-04T08:31:11;102648.25;;;1.43;100.00
64827;BME280;51265;53.972;12.286;2023-02-04T08:33:38;102663.31;;;1.46;100.00
64827;BME280;51265;53.972;12.286;2023-02-04T08:36:05;102651.44;;;1.32;100.00
64827;BME280;51265;53.972;12.286;2023-02-04T08:38:32;102660.97;;;1.28;100.00
64827;BME280;51265;53.972;12.286;2023-02-04T08:40:58;102667.19;;;1.22;100.00
64827;BME280;51265;53.972;12.286;2023-02-04T08:43:25;102677.94;;;1.30;100.00
64827;BME280;51265;53.972;12.286;2023-02-04T08:45:51;102673.91;;;1.26;100.00
64827;BME280;51265;53.972;12.286;2023-02-04T08:48:18;102663.97;;;1.04;100.00
64827;BME280;51265;53.972;12.286;2023-02-04T08:50:44;102656.66;;;0.89;100.00
64827;BME280;51265;53.972;12.286;2023-02-04T08:53:10;102684.06;;;0.94;100.00
64827;BME280;51265;53.972;12.286;2023-02-04T08:55:36;102700.56;;;1.08;100.00
64827;BME280;51265;53.972;12.286;2023-02-04T08:58:02;102711.81;;;1.19;100.00
64827;BME280;51265;53.972;12.286;2023-02-04T09:00:29;102719.97;;;1.34;100.00
64827;BME280;51265;53.972;12.286;2023-02-04T09:02:55;102734.84;;;1.53;100.00
64827;BME280;51265;53.972;12.286;2023-02-04T09:05:21;102737.59;;;1.68;100.00
64827;BME280;51265;53.972;12.286;2023-02-04T09:07:47;102731.13;;;1.69;100.00
64827;BME280;51265;53.972;12.286;2023-02-04T09:10:14;102722.59;;;1.72;100.00
64827;BME280;51265;53.972;12.286;2023-02-04T09:12:40;102727.41;;;1.91;100.00
64827;BME280;51265;53.972;12.286;2023-02-04T09:15:09;102734.72;;;2.06;100.00
64827;BME280;51265;53.972;12.286;2023-02-04T09:17:35;102721.66;;;2.16;100.00
64827;BME280;51265;53.972;12.286;2023-02-04T09:20:02;102716.47;;;2.21;100.00
64827;BME280;51265;53.972;12.286;2023-02-04T09:22:29;102709.13;;;2.36;100.00
64827;BME280;51265;53.972;12.286;2023-02-04T09:24:55;102709.63;;;2.46;100.00
64827;BME280;51265;53.972;12.286;2023-02-04T09:27:21;102690.59;;;2.46;100.00
64827;BME280;51265;53.972;12.286;2023-02-04T09:29:47;102657.44;;;2.15;100.00
64827;BME280;51265;53.972;12.286;2023-02-04T09:32:13;102678.16;;;2.37;100.00
64827;BME280;51265;53.972;12.286;2023-02-04T09:34:39;102667.28;;;2.37;100.00
64827;BME280;51265;53.972;12.286;2023-02-04T09:37:05;102648.66;;;2.34;100.00
64827;BME280;51265;53.972;12.286;2023-02-04T09:39:32;102645.94;;;2.34;100.00
64827;BME280;51265;53.972;12.286;2023-02-04T09:41:58;102619.50;;;2.28;100.00
64827;BME280;51265;53.972;12.286;2023-02-04T09:44:25;102600.22;;;2.23;100.00
64827;BME280;51265;53.972;12.286;2023-02-04T09:46:56;102574.22;;;2.14;100.00
64827;BME280;51265;53.972;12.286;2023-02-04T09:49:24;102563.66;;;2.04;100.00
64827;BME280;51265;53.972;12.286;2023-02-04T09:51:51;102515.47;;;1.70;100.00
64827;BME280;51265;53.972;12.286;2023-02-04T09:54:19;102507.19;;;1.57;100.00
64827;BME280;51265;53.972;12.286;2023-02-04T09:56:46;102541.66;;;1.78;100.00
64827;BME280;51265;53.972;12.286;2023-02-04T09:59:15;102568.47;;;2.02;100.00
64827;BME280;51265;53.972;12.286;2023-02-04T10:01:42;102567.50;;;2.10;100.00
64827;BME280;51265;53.972;12.286;2023-02-04T10:04:13;102579.78;;;2.27;100.00
64827;BME280;51265;53.972;12.286;2023-02-04T10:06:41;102561.78;;;2.26;100.00
64827;BME280;51265;53.972;12.286;2023-02-04T10:09:10;102565.97;;;2.29;100.00
64827;BME280;51265;53.972;12.286;2023-02-04T10:11:39;102606.78;;;2.57;100.00
64827;BME280;51265;53.972;12.286;2023-02-04T10:14:12;102600.56;;;2.63;100.00
64827;BME280;51265;53.972;12.286;2023-02-04T10:16:40;102578.09;;;2.54;100.00
64827;BME280;51265;53.972;12.286;2023-02-04T10:19:12;102576.63;;;2.52;100.00
64827;BME280;51265;53.972;12.286;2023-02-04T10:21:40;102622.03;;;2.79;100.00
64827;BME280;51265;53.972;12.286;2023-02-04T10:24:19;102612.88;;;2.87;100.00
64827;BME280;51265;53.972;12.286;2023-02-04T10:26:47;102620.94;;;3.02;100.00
64827;BME280;51265;53.972;12.286;2023-02-04T10:29:21;102568.78;;;2.70;100.00
64827;BME280;51265;53.972;12.286;2023-02-04T10:31:51;102556.94;;;2.49;100.00
64827;BME280;51265;53.972;12.286;2023-02-04T10:34:23;102588.34;;;2.80;100.00
64827;BME280;51265;53.972;12.286;2023-02-04T10:36:56;102540.16;;;2.46;100.00
64827;BME280;51265;53.972;12.286;2023-02-04T10:39:41;102493.44;;;2.08;100.00
64827;BME280;51265;53.972;12.286;2023-02-04T10:42:22;102516.63;;;2.04;100.00
64827;BME280;51265;53.972;12.286;2023-02-04T10:44:50;102574.91;;;2.44;100.00
64827;BME280;51265;53.972;12.286;2023-02-04T10:47:21;102550.22;;;2.45;100.00
64827;BME280;51265;53.972;12.286;2023-02-04T10:50:18;102607.31;;;3.02;100.00
64827;BME280;51265;53.972;12.286;2023-02-04T10:52:48;102598.41;;;3.14;100.00
64827;BME280;51265;53.972;12.286;2023-02-04T10:55:17;102599.38;;;3.48;100.00
64827;BME280;51265;53.972;12.286;2023-02-04T10:57:46;102499.06;;;2.97;98.40
64827;BME280;51265;53.972;12.286;2023-02-04T11:00:23;102450.63;;;2.44;97.90
64827;BME280;51265;53.972;12.286;2023-02-04T11:03:01;102507.88;;;2.71;98.83
64827;BME280;51265;53.972;12.286;2023-02-04T11:05:31;102566.34;;;3.16;99.24
64827;BME280;51265;53.972;12.286;2023-02-04T11:07:57;102599.25;;;3.69;99.25
64827;BME280;51265;53.972;12.286;2023-02-04T11:10:29;102562.19;;;3.82;96.93
64827;BME280;51265;53.972;12.286;2023-02-04T11:15:53;102571.03;;;4.23;95.10
64827;BME280;51265;53.972;12.286;2023-02-04T11:20:47;102497.63;;;4.15;92.54
64827;BME280;51265;53.972;12.286;2023-02-04T11:25:40;102537.03;;;4.53;92.96
64827;BME280;51265;53.972;12.286;2023-02-04T11:28:23;102506.81;;;4.47;92.15
64827;BME280;51265;53.972;12.286;2023-02-04T11:31:00;102521.69;;;4.65;92.08
64827;BME280;51265;53.972;12.286;2023-02-04T11:33:37;102482.91;;;4.36;91.49
64827;BME280;51265;53.972;12.286;2023-02-04T11:36:05;102335.94;;;3.09;90.10
64827;BME280;51265;53.972;12.286;2023-02-04T11:38:32;102320.09;;;2.44;91.92
64827;BME280;51265;53.972;12.286;2023-02-04T11:40:59;102355.38;;;1.96;93.86
64827;BME280;51265;53.972;12.286;2023-02-04T11:43:26;102385.44;;;1.88;94.30
64827;BME280;51265;53.972;12.286;2023-02-04T11:46:01;102458.56;;;2.39;95.26
64827;BME280;51265;53.972;12.286;2023-02-04T11:48:28;102513.06;;;3.00;95.17
64827;BME280;51265;53.972;12.286;2023-02-04T11:50:56;102476.47;;;3.10;93.69
64827;BME280;51265;53.972;12.286;2023-02-04T11:53:27;102462.66;;;3.11;93.46
64827;BME280;51265;53.972;12.286;2023-02-04T11:55:53;102528.63;;;3.68;93.59
64827;BME280;51265;53.972;12.286;2023-02-04T11:58:19;102467.81;;;3.74;91.08
64827;BME280;51265;53.972;12.286;2023-02-04T12:00:46;102406.19;;;3.60;89.42
64827;BME280;51265;53.972;12.286;2023-02-04T12:05:52;102383.25;;;2.94;90.88
64827;BME280;51265;53.972;12.286;2023-02-04T12:10:49;102437.19;;;3.39;91.25
64827;BME280;51265;53.972;12.286;2023-02-04T12:13:22;102394.84;;;3.36;89.75
64827;BME280;51265;53.972;12.286;2023-02-04T12:16:05;102352.06;;;3.04;89.52
64827;BME280;51265;53.972;12.286;2023-02-04T12:18:33;102367.34;;;3.05;89.83
64827;BME280;51265;53.972;12.286;2023-02-04T12:21:00;102406.97;;;3.14;90.29
64827;BME280;51265;53.972;12.286;2023-02-04T12:23:28;102421.03;;;3.37;89.92
64827;BME280;51265;53.972;12.286;2023-02-04T12:25:57;102375.78;;;3.23;89.27
64827;BME280;51265;53.972;12.286;2023-02-04T12:28:23;102305.56;;;2.85;87.92
64827;BME280;51265;53.972;12.286;2023-02-04T12:30:49;102307.19;;;2.73;88.26
64827;BME280;51265;53.972;12.286;2023-02-04T12:33:16;102324.16;;;2.75;88.46
64827;BME280;51265;53.972;12.286;2023-02-04T12:35:42;102329.84;;;2.93;88.45
64827;BME280;51265;53.972;12.286;2023-02-04T12:38:08;102327.78;;;3.09;87.54
64827;BME280;51265;53.972;12.286;2023-02-04T12:40:35;102308.94;;;3.14;86.42
64827;BME280;51265;53.972;12.286;2023-02-04T12:43:01;102288.41;;;2.98;86.93
64827;BME280;51265;53.972;12.286;2023-02-04T12:45:27;102290.69;;;2.88;86.48
64827;BME280;51265;53.972;12.286;2023-02-04T12:47:53;102235.50;;;2.19;87.34
64827;BME280;51265;53.972;12.286;2023-02-04T12:50:19;102288.19;;;2.18;88.41
64827;BME280;51265;53.972;12.286;2023-02-04T12:52:53;102334.69;;;2.30;89.86
64827;BME280;51265;53.972;12.286;2023-02-04T12:55:21;102294.19;;;2.07;88.54
64827;BME280;51265;53.972;12.286;2023-02-04T12:57:48;102298.56;;;2.02;89.16